sensor_id;sensor_type;location;lat;lon;timestamp;temperature;humidity
27647;DHT22;42229;51.230;6.240;2023-02-16T00:01:50;7.40;99.90
27647;DHT22;42229;51.230;6.240;2023-02-16T00:04:26;7.40;99.90
27647;DHT22;42229;51.230;6.240;2023-02-16T00:06:57;7.40;99.90
27647;DHT22;42229;51.230;6.240;2023-02-16T00:09:23;7.40;99.90
27647;DHT22;42229;51.230;6.240;2023-02-16T00:11:50;7.40;99.90
27647;DHT22;42229;51.230;6.240;2023-02-16T00:14:36;7.40;99.90
27647;DHT22;42229;51.230;6.240;2023-02-16T00:17:04;7.30;99.90
27647;DHT22;42229;51.230;6.240;2023-02-16T00:19:38;7.30;99.90
27647;DHT22;42229;51.230;6.240;2023-02-16T00:22:07;7.30;99.90
27647;DHT22;42229;51.230;6.240;2023-02-16T00:24:36;7.30;99.90
27647;DHT22;42229;51.230;6.240;2023-02-16T00:27:07;7.30;99.90
27647;DHT22;42229;51.230;6.240;2023-02-16T00:29:38;7.30;99.90
27647;DHT22;42229;51.230;6.240;2023-02-16T00:32:09;7.30;99.90
27647;DHT22;42229;51.230;6.240;2023-02-16T00:34:44;7.30;99.90
27647;DHT22;42229;51.230;6.240;2023-02-16T00:37:13;7.30;99.90
27647;DHT22;42229;51.230;6.240;2023-02-16T00:39:41;7.30;99.90
27647;DHT22;42229;51.230;6.240;2023-02-16T00:42:21;7.20;99.90
27647;DHT22;42229;51.230;6.240;2023-02-16T00:44:56;7.30;99.90
27647;DHT22;42229;51.230;6.240;2023-02-16T00:47:29;7.20;99.90
27647;DHT22;42229;51.230;6.240;2023-02-16T00:49:58;7.20;99.90
27647;DHT22;42229;51.230;6.240;2023-02-16T00:54:55;7.20;99.90
27647;DHT22;42229;51.230;6.240;2023-02-16T00:57:22;7.10;99.90
27647;DHT22;42229;51.230;6.240;2023-02-16T00:59:48;7.10;99.90
27647;DHT22;42229;51.230;6.240;2023-02-16T01:02:23;7.20;99.90
27647;DHT22;42229;51.230;6.240;2023-02-16T01:04:49;7.20;99.90
27647;DHT22;42229;51.230;6.240;2023-02-16T01:07:15;7.20;99.90
27647;DHT22;42229;51.230;6.240;2023-02-16T01:10:02;7.20;99.90
27647;DHT22;42229;51.230;6.240;2023-02-16T01:12:47;7.20;99.90
27647;DHT22;42229;51.230;6.240;2023-02-16T01:15:14;7.20;99.90
27647;DHT22;42229;51.230;6.240;2023-02-16T01:17:41;7.20;99.90
27647;DHT22;42229;51.230;6.240;2023-02-16T01:20:17;7.20;99.90
27647;DHT22;42229;51.230;6.240;2023-02-16T01:22:45;7.20;99.90
27647;DHT22;42229;51.230;6.240;2023-02-16T01:25:12;7.20;99.90
27647;DHT22;42229;51.230;6.240;2023-02-16T01:27:39;7.20;99.90
27647;DHT22;42229;51.230;6.240;2023-02-16T01:30:07;7.10;99.90
27647;DHT22;42229;51.230;6.240;2023-02-16T01:32:39;7.10;99.90
27647;DHT22;42229;51.230;6.240;2023-02-16T01:35:07;7.00;99.90
27647;DHT22;42229;51.230;6.240;2023-02-16T01:37:33;7.00;99.90
27647;DHT22;42229;51.230;6.240;2023-02-16T01:39:59;7.00;99.90
27647;DHT22;42229;51.230;6.240;2023-02-16T01:42:37;6.90;99.90
27647;DHT22;42229;51.230;6.240;2023-02-16T01:45:15;6.80;99.90
27647;DHT22;42229;51.230;6.240;2023-02-16T01:47:46;6.80;99.90
27647;DHT22;42229;51.230;6.240;2023-02-16T01:50:17;6.70;99.90
27647;DHT22;42229;51.230;6.240;2023-02-16T01:52:48;6.60;99.90
27647;DHT22;42229;51.230;6.240;2023-02-16T01:55:22;6.60;99.90
27647;DHT22;42229;51.230;6.240;2023-02-16T02:00:29;6.40;99.90
27647;DHT22;42229;51.230;6.240;2023-02-16T02:03:25;6.40;99.90
27647;DHT22;42229;51.230;6.240;2023-02-16T02:06:13;6.30;99.90
27647;DHT22;42229;51.230;6.240;2023-02-16T02:08:42;6.30;99.90
27647;DHT22;42229;51.230;6.240;2023-02-16T02:11:32;6.20;99.90
27647;DHT22;42229;51.230;6.240;2023-02-16T02:14:02;6.20;99.90
27647;DHT22;42229;51.230;6.240;2023-02-16T02:16:32;6.20;99.90
27647;DHT22;42229;51.230;6.240;2023-02-16T02:18:58;6.10;99.90
27647;DHT22;42229;51.230;6.240;2023-02-16T02:21:35;6.10;99.90
27647;DHT22;42229;51.230;6.240;2023-02-16T02:24:45;6.10;99.90
27647;DHT22;42229;51.230;6.240;2023-02-16T02:27:41;6.00;99.90
27647;DHT22;42229;51.230;6.240;2023-02-16T02:41:23;5.90;99.90
27647;DHT22;42229;51.230;6.240;2023-02-16T02:44:15;5.90;99.90
27647;DHT22;42229;51.230;6.240;2023-02-16T02:46:43;5.80;99.90
27647;DHT22;42229;51.230;6.240;2023-02-16T02:49:12;5.80;99.90
27647;DHT22;42229;51.230;6.240;2023-02-16T02:51:42;5.80;99.90
27647;DHT22;42229;51.230;6.240;2023-02-16T02:54:32;5.80;99.90
27647;DHT22;42229;51.230;6.240;2023-02-16T03:00:35;5.80;99.90
27647;DHT22;42229;51.230;6.240;2023-02-16T03:03:10;5.80;99.90
27647;DHT22;42229;51.230;6.240;2023-02-16T03:05:43;5.80;99.90
27647;DHT22;42229;51.230;6.240;2023-02-16T03:08:11;5.80;99.90
27647;DHT22;42229;51.230;6.240;2023-02-16T03:13:50;5.80;99.90
27647;DHT22;42229;51.230;6.240;2023-02-16T03:16:22;5.80;99.90
27647;DHT22;42229;51.230;6.240;2023-02-16T03:18:53;5.90;99.90
27647;DHT22;42229;51.230;6.240;2023-02-16T03:21:38;5.90;99.90
27647;DHT22;42229;51.230;6.240;2023-02-16T03:24:28;5.90;99.90
27647;DHT22;42229;51.230;6.240;2023-02-16T03:27:15;5.90;99.90
27647;DHT22;42229;51.230;6.240;2023-02-16T03:30:02;5.90;99.90
27647;DHT22;42229;51.230;6.240;2023-02-16T03:32:29;5.90;99.90
27647;DHT22;42229;51.230;6.240;2023-02-16T03:34:56;5.90;99.90
27647;DHT22;42229;51.230;6.240;2023-02-16T03:37:22;5.90;99.90
27647;DHT22;42229;51.230;6.240;2023-02-16T03:39:49;5.90;99.90
27647;DHT22;42229;51.230;6.240;2023-02-16T03:42:33;5.80;99.90
27647;DHT22;42229;51.230;6.240;2023-02-16T03:45:00;5.80;99.90
27647;DHT22;42229;51.230;6.240;2023-02-16T03:47:26;5.80;99.90
27647;DHT22;42229;51.230;6.240;2023-02-16T03:49:52;5.80;99.90
27647;DHT22;42229;51.230;6.240;2023-02-16T03:52:18;5.80;99.90
27647;DHT22;42229;51.230;6.240;2023-02-16T03:54:45;5.80;99.90
27647;DHT22;42229;51.230;6.240;2023-02-16T03:57:11;5.80;99.90
27647;DHT22;42229;51.230;6.240;2023-02-16T03:59:37;5.80;99.90
27647;DHT22;42229;51.230;6.240;2023-02-16T04:02:03;5.80;99.90
27647;DHT22;42229;51.230;6.240;2023-02-16T04:04:29;5.80;99.90
27647;DHT22;42229;51.230;6.240;2023-02-16T04:06:56;5.80;99.90
27647;DHT22;42229;51.230;6.240;2023-02-16T04:09:22;5.80;99.90
27647;DHT22;42229;51.230;6.240;2023-02-16T04:11:48;5.80;99.90
27647;DHT22;42229;51.230;6.240;2023-02-16T04:14:33;5.80;99.90
27647;DHT22;42229;51.230;6.240;2023-02-16T04:16:59;5.80;99.90
27647;DHT22;42229;51.230;6.240;2023-02-16T04:19:25;5.80;99.90
27647;DHT22;42229;51.230;6.240;2023-02-16T04:21:52;5.80;99.90
27647;DHT22;42229;51.230;6.240;2023-02-16T04:24:18;5.80;99.90
27647;DHT22;42229;51.230;6.240;2023-02-16T04:26:44;5.80;99.90
27647;DHT22;42229;51.230;6.240;2023-02-16T04:29:10;5.80;99.90
27647;DHT22;42229;51.230;6.240;2023-02-16T04:31:37;5.80;99.90
27647;DHT22;42229;51.230;6.240;2023-02-16T04:34:03;5.80;99.90
27647;DHT22;42229;51.230;6.240;2023-02-16T04:36:29;5.80;99.90
27647;DHT22;42229;51.230;6.240;2023-02-16T04:38:56;5.70;99.90
27647;DHT22;42229;51.230;6.240;2023-02-16T04:41:22;5.70;99.90
27647;DHT22;42229;51.230;6.240;2023-02-16T04:43:48;5.70;99.90
27647;DHT22;42229;51.230;6.240;2023-02-16T04:46:15;5.70;99.90
27647;DHT22;42229;51.230;6.240;2023-02-16T04:48:41;5.70;99.90
27647;DHT22;42229;51.230;6.240;2023-02-16T04:51:07;5.60;99.90
27647;DHT22;42229;51.230;6.240;2023-02-16T04:53:33;5.60;99.90
27647;DHT22;42229;51.230;6.240;2023-02-16T04:56:00;5.60;99.90
27647;DHT22;42229;51.230;6.240;2023-02-16T04:58:26;5.50;99.90
27647;DHT22;42229;51.230;6.240;2023-02-16T05:00:52;5.50;99.90
27647;DHT22;42229;51.230;6.240;2023-02-16T05:03:18;5.50;99.90
27647;DHT22;42229;51.230;6.240;2023-02-16T05:05:45;5.40;99.90
27647;DHT22;42229;51.230;6.240;2023-02-16T05:08:11;5.40;99.90
27647;DHT22;42229;51.230;6.240;2023-02-16T05:10:37;5.40;99.90
27647;DHT22;42229;51.230;6.240;2023-02-16T05:13:03;5.50;99.90
27647;DHT22;42229;51.230;6.240;2023-02-16T05:15:48;5.40;99.90
27647;DHT22;42229;51.230;6.240;2023-02-16T05:18:14;5.40;99.90
27647;DHT22;42229;51.230;6.240;2023-02-16T05:20:41;5.40;99.90
27647;DHT22;42229;51.230;6.240;2023-02-16T05:23:27;5.40;99.90
27647;DHT22;42229;51.230;6.240;2023-02-16T05:25:53;5.40;99.90
27647;DHT22;42229;51.230;6.240;2023-02-16T05:28:19;5.40;99.90
27647;DHT22;42229;51.230;6.240;2023-02-16T05:30:46;5.50;99.90
27647;DHT22;42229;51.230;6.240;2023-02-16T05:33:12;5.50;99.90
27647;DHT22;42229;51.230;6.240;2023-02-16T05:35:38;5.50;99.90
27647;DHT22;42229;51.230;6.240;2023-02-16T05:38:04;5.50;99.90
27647;DHT22;42229;51.230;6.240;2023-02-16T05:40:31;5.50;99.90
27647;DHT22;42229;51.230;6.240;2023-02-16T05:42:57;5.50;99.90
27647;DHT22;42229;51.230;6.240;2023-02-16T05:45:23;5.50;99.90
27647;DHT22;42229;51.230;6.240;2023-02-16T05:47:49;5.50;99.90
27647;DHT22;42229;51.230;6.240;2023-02-16T05:50:17;5.50;99.90
27647;DHT22;42229;51.230;6.240;2023-02-16T05:52:44;5.50;99.90
27647;DHT22;42229;51.230;6.240;2023-02-16T05:55:10;5.50;99.90
27647;DHT22;42229;51.230;6.240;2023-02-16T05:57:36;5.50;99.90
27647;DHT22;42229;51.230;6.240;2023-02-16T06:00:03;5.50;99.90
27647;DHT22;42229;51.230;6.240;2023-02-16T06:02:30;5.60;99.90
27647;DHT22;42229;51.230;6.240;2023-02-16T06:05:00;5.60;99.90
27647;DHT22;42229;51.230;6.240;2023-02-16T06:07:59;5.60;99.90
27647;DHT22;42229;51.230;6.240;2023-02-16T06:10:25;5.60;99.90
27647;DHT22;42229;51.230;6.240;2023-02-16T06:12:51;5.60;99.90
27647;DHT22;42229;51.230;6.240;2023-02-16T06:15:18;5.70;99.90
27647;DHT22;42229;51.230;6.240;2023-02-16T06:17:44;5.70;99.90
27647;DHT22;42229;51.230;6.240;2023-02-16T06:20:10;5.70;99.90
27647;DHT22;42229;51.230;6.240;2023-02-16T06:22:36;5.80;99.90
27647;DHT22;42229;51.230;6.240;2023-02-16T06:25:03;5.80;99.90
27647;DHT22;42229;51.230;6.240;2023-02-16T06:27:29;5.80;99.90
27647;DHT22;42229;51.230;6.240;2023-02-16T06:29:56;5.90;99.90
27647;DHT22;42229;51.230;6.240;2023-02-16T06:32:22;5.90;99.90
27647;DHT22;42229;51.230;6.240;2023-02-16T06:34:48;5.90;99.90
27647;DHT22;42229;51.230;6.240;2023-02-16T06:37:14;6.00;99.90
27647;DHT22;42229;51.230;6.240;2023-02-16T06:39:41;6.00;99.90
27647;DHT22;42229;51.230;6.240;2023-02-16T06:42:07;6.00;99.90
27647;DHT22;42229;51.230;6.240;2023-02-16T06:44:33;6.10;99.90
27647;DHT22;42229;51.230;6.240;2023-02-16T06:46:59;6.10;99.90
27647;DHT22;42229;51.230;6.240;2023-02-16T06:49:25;6.20;99.90
27647;DHT22;42229;51.230;6.240;2023-02-16T06:51:52;6.30;99.90
27647;DHT22;42229;51.230;6.240;2023-02-16T06:54:18;6.30;99.90
27647;DHT22;42229;51.230;6.240;2023-02-16T06:56:44;6.40;99.90
27647;DHT22;42229;51.230;6.240;2023-02-16T06:59:11;6.50;99.90
27647;DHT22;42229;51.230;6.240;2023-02-16T07:01:37;6.50;99.90
27647;DHT22;42229;51.230;6.240;2023-02-16T07:04:03;6.60;99.90
27647;DHT22;42229;51.230;6.240;2023-02-16T07:06:30;6.70;99.90
27647;DHT22;42229;51.230;6.240;2023-02-16T07:08:56;6.70;99.90
27647;DHT22;42229;51.230;6.240;2023-02-16T07:11:24;6.80;99.90
27647;DHT22;42229;51.230;6.240;2023-02-16T07:13:50;6.80;99.90
27647;DHT22;42229;51.230;6.240;2023-02-16T07:16:16;6.90;99.90
27647;DHT22;42229;51.230;6.240;2023-02-16T07:18:42;6.90;99.90
27647;DHT22;42229;51.230;6.240;2023-02-16T07:21:09;7.00;99.90
27647;DHT22;42229;51.230;6.240;2023-02-16T07:23:35;7.00;99.90
27647;DHT22;42229;51.230;6.240;2023-02-16T07:26:01;7.10;99.90
27647;DHT22;42229;51.230;6.240;2023-02-16T07:28:28;7.10;99.90
27647;DHT22;42229;51.230;6.240;2023-02-16T07:30:54;7.20;99.90
27647;DHT22;42229;51.230;6.240;2023-02-16T07:33:20;7.30;99.90
27647;DHT22;42229;51.230;6.240;2023-02-16T07:35:47;7.30;99.90
27647;DHT22;42229;51.230;6.240;2023-02-16T07:38:15;7.40;99.90
27647;DHT22;42229;51.230;6.240;2023-02-16T07:40:41;7.40;99.90
27647;DHT22;42229;51.230;6.240;2023-02-16T07:43:07;7.50;99.90
27647;DHT22;42229;51.230;6.240;2023-02-16T07:45:33;7.50;99.90
27647;DHT22;42229;51.230;6.240;2023-02-16T07:48:00;7.60;99.90
27647;DHT22;42229;51.230;6.240;2023-02-16T07:50:27;7.70;99.90
27647;DHT22;42229;51.230;6.240;2023-02-16T07:52:53;7.70;99.90
27647;DHT22;42229;51.230;6.240;2023-02-16T07:55:19;7.80;99.90
27647;DHT22;42229;51.230;6.240;2023-02-16T07:57:46;7.90;99.90
27647;DHT22;42229;51.230;6.240;2023-02-16T08:00:14;7.90;99.90
27647;DHT22;42229;51.230;6.240;2023-02-16T08:02:40;8.00;99.90
27647;DHT22;42229;51.230;6.240;2023-02-16T08:05:06;8.10;99.90
27647;DHT22;42229;51.230;6.240;2023-02-16T08:07:33;8.10;99.90
27647;DHT22;42229;51.230;6.240;2023-02-16T08:09:59;8.20;99.90
27647;DHT22;42229;51.230;6.240;2023-02-16T08:12:25;8.30;99.90
27647;DHT22;42229;51.230;6.240;2023-02-16T08:14:52;8.30;99.90
27647;DHT22;42229;51.230;6.240;2023-02-16T08:17:18;8.40;99.90
27647;DHT22;42229;51.230;6.240;2023-02-16T08:19:45;8.50;99.90
27647;DHT22;42229;51.230;6.240;2023-02-16T08:22:11;8.50;99.90
27647;DHT22;42229;51.230;6.240;2023-02-16T08:24:37;8.60;99.90
27647;DHT22;42229;51.230;6.240;2023-02-16T08:27:04;8.70;99.90
27647;DHT22;42229;51.230;6.240;2023-02-16T08:29:31;8.80;99.90
27647;DHT22;42229;51.230;6.240;2023-02-16T08:31:58;8.80;99.90
27647;DHT22;42229;51.230;6.240;2023-02-16T08:34:24;8.90;99.90
27647;DHT22;42229;51.230;6.240;2023-02-16T08:36:52;9.00;99.90
27647;DHT22;42229;51.230;6.240;2023-02-16T08:39:22;9.10;99.90
27647;DHT22;42229;51.230;6.240;2023-02-16T08:41:51;9.20;99.90
27647;DHT22;42229;51.230;6.240;2023-02-16T08:44:18;9.20;99.90
27647;DHT22;42229;51.230;6.240;2023-02-16T08:46:45;9.30;99.90
27647;DHT22;42229;51.230;6.240;2023-02-16T08:49:13;9.40;99.90
27647;DHT22;42229;51.230;6.240;2023-02-16T08:51:43;9.50;99.90
27647;DHT22;42229;51.230;6.240;2023-02-16T08:54:14;9.60;99.90
27647;DHT22;42229;51.230;6.240;2023-02-16T08:56:42;9.80;99.90
27647;DHT22;42229;51.230;6.240;2023-02-16T08:59:13;9.80;99.90
27647;DHT22;42229;51.230;6.240;2023-02-16T09:01:40;9.90;99.90
27647;DHT22;42229;51.230;6.240;2023-02-16T09:04:07;10.10;99.90
27647;DHT22;42229;51.230;6.240;2023-02-16T09:06:35;10.10;99.90
27647;DHT22;42229;51.230;6.240;2023-02-16T09:09:03;10.20;99.90
27647;DHT22;42229;51.230;6.240;2023-02-16T09:11:30;10.30;99.90
27647;DHT22;42229;51.230;6.240;2023-02-16T09:13:56;10.40;99.90
27647;DHT22;42229;51.230;6.240;2023-02-16T09:16:22;10.40;99.90
27647;DHT22;42229;51.230;6.240;2023-02-16T09:18:50;10.50;99.90
27647;DHT22;42229;51.230;6.240;2023-02-16T09:21:17;10.60;99.90
27647;DHT22;42229;51.230;6.240;2023-02-16T09:23:46;10.60;99.90
27647;DHT22;42229;51.230;6.240;2023-02-16T09:26:15;10.70;99.90
27647;DHT22;42229;51.230;6.240;2023-02-16T09:28:43;10.80;99.90
27647;DHT22;42229;51.230;6.240;2023-02-16T09:31:11;10.90;99.90
27647;DHT22;42229;51.230;6.240;2023-02-16T09:33:51;11.00;99.90
27647;DHT22;42229;51.230;6.240;2023-02-16T09:36:19;11.10;99.90
27647;DHT22;42229;51.230;6.240;2023-02-16T09:38:45;11.20;99.90
27647;DHT22;42229;51.230;6.240;2023-02-16T09:43:56;11.40;99.90
27647;DHT22;42229;51.230;6.240;2023-02-16T09:46:26;11.40;99.90
27647;DHT22;42229;51.230;6.240;2023-02-16T09:48:54;11.50;99.90
27647;DHT22;42229;51.230;6.240;2023-02-16T09:51:22;11.50;99.90
27647;DHT22;42229;51.230;6.240;2023-02-16T09:53:58;11.60;99.90
27647;DHT22;42229;51.230;6.240;2023-02-16T09:56:47;11.60;99.90
27647;DHT22;42229;51.230;6.240;2023-02-16T10:02:17;11.70;99.90
27647;DHT22;42229;51.230;6.240;2023-02-16T10:04:57;11.70;99.90
27647;DHT22;42229;51.230;6.240;2023-02-16T10:07:57;11.70;99.90
27647;DHT22;42229;51.230;6.240;2023-02-16T10:10:39;11.70;99.90
27647;DHT22;42229;51.230;6.240;2023-02-16T10:13:12;11.70;99.90
27647;DHT22;42229;51.230;6.240;2023-02-16T10:15:52;11.70;99.90
27647;DHT22;42229;51.230;6.240;2023-02-16T10:18:25;11.70;99.90
27647;DHT22;42229;51.230;6.240;2023-02-16T10:20:55;11.70;99.90
27647;DHT22;42229;51.230;6.240;2023-02-16T10:23:31;11.70;99.90
27647;DHT22;42229;51.230;6.240;2023-02-16T10:31:22;11.70;99.90
27647;DHT22;42229;51.230;6.240;2023-02-16T10:34:03;11.70;99.90
27647;DHT22;42229;51.230;6.240;2023-02-16T10:37:18;11.70;99.90
27647;DHT22;42229;51.230;6.240;2023-02-16T10:47:58;11.90;99.90
27647;DHT22;42229;51.230;6.240;2023-02-16T10:53:14;12.00;99.90
27647;DHT22;42229;51.230;6.240;2023-02-16T10:55:43;12.10;99.90
27647;DHT22;42229;51.230;6.240;2023-02-16T10:58:15;12.10;99.90
27647;DHT22;42229;51.230;6.240;2023-02-16T11:00:56;12.10;99.90
27647;DHT22;42229;51.230;6.240;2023-02-16T11:03:29;12.20;99.90
27647;DHT22;42229;51.230;6.240;2023-02-16T11:06:11;12.20;99.90
27647;DHT22;42229;51.230;6.240;2023-02-16T11:08:48;12.20;99.90
27647;DHT22;42229;51.230;6.240;2023-02-16T11:11:16;12.20;99.90
27647;DHT22;42229;51.230;6.240;2023-02-16T11:13:48;12.20;99.90
27647;DHT22;42229;51.230;6.240;2023-02-16T11:16:18;12.20;99.90
27647;DHT22;42229;51.230;6.240;2023-02-16T11:18:47;12.20;99.90
27647;DHT22;42229;51.230;6.240;2023-02-16T11:21:43;12.10;99.90
27647;DHT22;42229;51.230;6.240;2023-02-16T11:24:24;12.10;99.90
27647;DHT22;42229;51.230;6.240;2023-02-16T11:26:59;12.10;99.90
27647;DHT22;42229;51.230;6.240;2023-02-16T11:29:46;12.10;99.90
27647;DHT22;42229;51.230;6.240;2023-02-16T11:32:13;12.10;99.90
27647;DHT22;42229;51.230;6.240;2023-02-16T11:34:45;12.10;99.90
27647;DHT22;42229;51.230;6.240;2023-02-16T11:37:26;12.10;99.90
27647;DHT22;42229;51.230;6.240;2023-02-16T11:39:54;12.10;99.90
27647;DHT22;42229;51.230;6.240;2023-02-16T11:42:32;12.10;99.90
27647;DHT22;42229;51.230;6.240;2023-02-16T11:45:01;12.10;99.90
27647;DHT22;42229;51.230;6.240;2023-02-16T11:47:36;12.10;99.90
27647;DHT22;42229;51.230;6.240;2023-02-16T11:52:48;12.20;99.90
27647;DHT22;42229;51.230;6.240;2023-02-16T11:55:22;12.20;99.90
27647;DHT22;42229;51.230;6.240;2023-02-16T11:57:52;12.20;99.90
27647;DHT22;42229;51.230;6.240;2023-02-16T12:00:20;12.20;99.90
27647;DHT22;42229;51.230;6.240;2023-02-16T12:05:43;12.30;99.90
27647;DHT22;42229;51.230;6.240;2023-02-16T12:08:41;12.30;99.90
27647;DHT22;42229;51.230;6.240;2023-02-16T12:11:34;12.30;99.90
27647;DHT22;42229;51.230;6.240;2023-02-16T12:19:39;12.40;99.90
27647;DHT22;42229;51.230;6.240;2023-02-16T12:24:48;12.60;99.90
27647;DHT22;42229;51.230;6.240;2023-02-16T12:43:31;13.10;99.90
27647;DHT22;42229;51.230;6.240;2023-02-16T12:46:26;13.20;99.90
27647;DHT22;42229;51.230;6.240;2023-02-16T12:48:56;13.20;99.90
27647;DHT22;42229;51.230;6.240;2023-02-16T12:51:29;13.20;99.90
27647;DHT22;42229;51.230;6.240;2023-02-16T12:54:03;13.30;99.90
27647;DHT22;42229;51.230;6.240;2023-02-16T12:59:38;13.50;99.90
27647;DHT22;42229;51.230;6.240;2023-02-16T13:02:30;13.60;99.90
27647;DHT22;42229;51.230;6.240;2023-02-16T13:05:05;13.60;99.90
27647;DHT22;42229;51.230;6.240;2023-02-16T13:07:41;13.60;99.90
27647;DHT22;42229;51.230;6.240;2023-02-16T13:13:17;13.70;99.90
27647;DHT22;42229;51.230;6.240;2023-02-16T13:15:48;13.80;99.90
27647;DHT22;42229;51.230;6.240;2023-02-16T13:18:37;13.90;99.90
27647;DHT22;42229;51.230;6.240;2023-02-16T13:21:07;14.10;99.90
27647;DHT22;42229;51.230;6.240;2023-02-16T13:34:44;15.20;99.90
27647;DHT22;42229;51.230;6.240;2023-02-16T13:37:47;15.20;99.90
27647;DHT22;42229;51.230;6.240;2023-02-16T13:43:28;15.30;99.90
27647;DHT22;42229;51.230;6.240;2023-02-16T13:45:57;15.30;99.90
27647;DHT22;42229;51.230;6.240;2023-02-16T13:48:28;15.40;99.90
27647;DHT22;42229;51.230;6.240;2023-02-16T13:51:00;15.40;99.90
27647;DHT22;42229;51.230;6.240;2023-02-16T13:53:31;15.40;99.90
27647;DHT22;42229;51.230;6.240;2023-02-16T13:56:13;15.60;99.90
27647;DHT22;42229;51.230;6.240;2023-02-16T13:58:47;15.70;99.90
27647;DHT22;42229;51.230;6.240;2023-02-16T14:04:07;16.10;99.90
27647;DHT22;42229;51.230;6.240;2023-02-16T14:06:38;16.40;99.90
27647;DHT22;42229;51.230;6.240;2023-02-16T14:14:25;17.20;99.90
27647;DHT22;42229;51.230;6.240;2023-02-16T14:19:45;17.40;99.90
27647;DHT22;42229;51.230;6.240;2023-02-16T14:22:16;17.30;99.90
27647;DHT22;42229;51.230;6.240;2023-02-16T14:24:49;17.30;99.90
27647;DHT22;42229;51.230;6.240;2023-02-16T14:38:15;17.10;99.90
27647;DHT22;42229;51.230;6.240;2023-02-16T14:40:55;17.10;99.90
27647;DHT22;42229;51.230;6.240;2023-02-16T14:52:14;17.10;99.90
27647;DHT22;42229;51.230;6.240;2023-02-16T14:54:52;17.10;99.90
27647;DHT22;42229;51.230;6.240;2023-02-16T15:00:32;17.00;99.90
27647;DHT22;42229;51.230;6.240;2023-02-16T15:05:32;16.90;99.90
27647;DHT22;42229;51.230;6.240;2023-02-16T15:08:02;16.80;99.90
27647;DHT22;42229;51.230;6.240;2023-02-16T15:10:34;16.80;99.90
27647;DHT22;42229;51.230;6.240;2023-02-16T15:13:02;16.80;99.90
27647;DHT22;42229;51.230;6.240;2023-02-16T15:15:35;16.80;99.90
27647;DHT22;42229;51.230;6.240;2023-02-16T15:18:10;16.80;99.90
27647;DHT22;42229;51.230;6.240;2023-02-16T15:20:38;16.80;99.90
27647;DHT22;42229;51.230;6.240;2023-02-16T15:23:14;16.80;99.90
27647;DHT22;42229;51.230;6.240;2023-02-16T15:25:42;16.80;99.90
27647;DHT22;42229;51.230;6.240;2023-02-16T15:28:19;16.70;99.90
27647;DHT22;42229;51.230;6.240;2023-02-16T15:30:48;16.60;99.40
27647;DHT22;42229;51.230;6.240;2023-02-16T15:36:32;16.30;99.90
27647;DHT22;42229;51.230;6.240;2023-02-16T15:38:54;16.20;99.90
27647;DHT22;42229;51.230;6.240;2023-02-16T15:41:29;16.00;99.90
27647;DHT22;42229;51.230;6.240;2023-02-16T15:43:56;15.80;99.90
27647;DHT22;42229;51.230;6.240;2023-02-16T15:46:36;15.70;99.90
27647;DHT22;42229;51.230;6.240;2023-02-16T15:49:20;15.50;99.90
27647;DHT22;42229;51.230;6.240;2023-02-16T15:51:52;15.30;99.90
27647;DHT22;42229;51.230;6.240;2023-02-16T15:54:23;15.20;99.90
27647;DHT22;42229;51.230;6.240;2023-02-16T15:56:54;15.10;99.90
27647;DHT22;42229;51.230;6.240;2023-02-16T16:02:01;15.00;99.90
27647;DHT22;42229;51.230;6.240;2023-02-16T16:04:29;15.00;99.90
27647;DHT22;42229;51.230;6.240;2023-02-16T16:06:56;14.90;99.90
27647;DHT22;42229;51.230;6.240;2023-02-16T16:09:23;14.90;99.90
27647;DHT22;42229;51.230;6.240;2023-02-16T16:11:53;14.90;99.90
27647;DHT22;42229;51.230;6.240;2023-02-16T16:14:21;14.90;99.90
27647;DHT22;42229;51.230;6.240;2023-02-16T16:16:48;14.90;99.90
27647;DHT22;42229;51.230;6.240;2023-02-16T16:22:10;14.80;99.90
27647;DHT22;42229;51.230;6.240;2023-02-16T16:24:53;14.80;99.90
27647;DHT22;42229;51.230;6.240;2023-02-16T16:27:30;14.70;99.90
27647;DHT22;42229;51.230;6.240;2023-02-16T16:32:45;14.60;99.90
27647;DHT22;42229;51.230;6.240;2023-02-16T16:35:21;14.60;99.90
27647;DHT22;42229;51.230;6.240;2023-02-16T16:38:03;14.50;99.90
27647;DHT22;42229;51.230;6.240;2023-02-16T16:40:34;14.50;99.90
27647;DHT22;42229;51.230;6.240;2023-02-16T16:48:07;14.40;99.90
27647;DHT22;42229;51.230;6.240;2023-02-16T16:50:36;14.30;99.90
27647;DHT22;42229;51.230;6.240;2023-02-16T16:53:33;14.20;99.90
27647;DHT22;42229;51.230;6.240;2023-02-16T16:55:55;14.20;99.90
27647;DHT22;42229;51.230;6.240;2023-02-16T16:58:22;14.20;99.90
27647;DHT22;42229;51.230;6.240;2023-02-16T17:00:48;14.10;99.90
27647;DHT22;42229;51.230;6.240;2023-02-16T17:03:15;14.10;99.90
27647;DHT22;42229;51.230;6.240;2023-02-16T17:05:43;14.00;99.90
27647;DHT22;42229;51.230;6.240;2023-02-16T17:08:10;14.10;99.90
27647;DHT22;42229;51.230;6.240;2023-02-16T17:10:37;14.00;99.90
27647;DHT22;42229;51.230;6.240;2023-02-16T17:13:05;14.00;99.90
27647;DHT22;42229;51.230;6.240;2023-02-16T17:18:12;13.90;99.90
27647;DHT22;42229;51.230;6.240;2023-02-16T17:20:39;13.90;99.90
27647;DHT22;42229;51.230;6.240;2023-02-16T17:23:06;13.90;99.90
27647;DHT22;42229;51.230;6.240;2023-02-16T17:25:32;13.90;99.90
27647;DHT22;42229;51.230;6.240;2023-02-16T17:27:59;13.90;99.90
27647;DHT22;42229;51.230;6.240;2023-02-16T17:30:26;13.80;99.90
27647;DHT22;42229;51.230;6.240;2023-02-16T17:32:52;13.80;99.90
27647;DHT22;42229;51.230;6.240;2023-02-16T17:35:18;13.80;99.90
27647;DHT22;42229;51.230;6.240;2023-02-16T17:37:45;13.80;99.90
27647;DHT22;42229;51.230;6.240;2023-02-16T17:40:11;13.80;99.90
27647;DHT22;42229;51.230;6.240;2023-02-16T17:42:40;13.80;99.90
27647;DHT22;42229;51.230;6.240;2023-02-16T17:45:07;13.80;99.90
27647;DHT22;42229;51.230;6.240;2023-02-16T17:47:34;13.80;99.90
27647;DHT22;42229;51.230;6.240;2023-02-16T17:50:00;13.80;99.90
27647;DHT22;42229;51.230;6.240;2023-02-16T17:52:27;13.80;99.90
27647;DHT22;42229;51.230;6.240;2023-02-16T17:54:53;13.70;99.90
27647;DHT22;42229;51.230;6.240;2023-02-16T17:57:19;13.70;99.90
27647;DHT22;42229;51.230;6.240;2023-02-16T17:59:45;13.70;99.90
27647;DHT22;42229;51.230;6.240;2023-02-16T18:02:12;13.50;99.90
27647;DHT22;42229;51.230;6.240;2023-02-16T18:04:38;13.50;99.90
27647;DHT22;42229;51.230;6.240;2023-02-16T18:07:11;13.60;99.90
27647;DHT22;42229;51.230;6.240;2023-02-16T18:09:41;13.50;99.90
27647;DHT22;42229;51.230;6.240;2023-02-16T18:12:07;13.50;99.90
27647;DHT22;42229;51.230;6.240;2023-02-16T18:14:33;13.50;99.90
27647;DHT22;42229;51.230;6.240;2023-02-16T18:17:01;13.40;99.90
27647;DHT22;42229;51.230;6.240;2023-02-16T18:19:29;13.40;99.90
27647;DHT22;42229;51.230;6.240;2023-02-16T18:21:55;13.40;99.90
27647;DHT22;42229;51.230;6.240;2023-02-16T18:24:21;13.30;99.90
27647;DHT22;42229;51.230;6.240;2023-02-16T18:26:47;13.30;99.90
27647;DHT22;42229;51.230;6.240;2023-02-16T18:29:17;13.20;99.90
27647;DHT22;42229;51.230;6.240;2023-02-16T18:31:43;13.30;99.90
27647;DHT22;42229;51.230;6.240;2023-02-16T18:34:12;13.30;99.90